Time;durP1;ratioP1;P1;durP2;ratioP2;P2;SDS_P1;SDS_P2;PMS_P1;PMS_P2;Temp;Humidity;BMP_temperature;BMP_pressure;BME280_temperature;BME280_humidity;BME280_pressure;Samples;Min_cycle;Max_cycle;Signal;HPM_P1;HPM_P2
2022/06/03 00:01:43;;;;;;;2.75;0.90;;;17.20;88.80;;;;;;5033245;28;20051;-61
2022/06/03 00:04:47;;;;;;;3.50;1.10;;;17.20;88.90;;;;;;5033080;28;20502;-61
2022/06/03 00:07:34;;;;;;;1.65;1.35;;;17.10;89.10;;;;;;5019436;28;20373;-62
2022/06/03 00:10:05;;;;;;;1.48;1.27;;;17.10;89.20;;;;;;5038183;28;20040;-62
2022/06/03 00:12:39;;;;;;;2.80;1.05;;;17.00;89.50;;;;;;5037699;28;20344;-62
2022/06/03 00:15:32;;;;;;;1.42;1.10;;;16.90;90.00;;;;;;5038475;28;20041;-61
2022/06/03 00:18:33;;;;;;;1.42;1.10;;;16.80;90.20;;;;;;5038571;28;20124;-61
2022/06/03 00:21:05;;;;;;;2.13;1.13;;;16.70;90.40;;;;;;5038135;28;20034;-62
2022/06/03 00:24:07;;;;;;;2.20;1.52;;;16.70;90.50;;;;;;5037108;28;20029;-62
2022/06/03 00:26:32;;;;;;;2.35;1.50;;;16.60;90.70;;;;;;5037037;28;20035;-63
2022/06/03 00:29:17;;;;;;;1.20;1.10;;;16.60;90.90;;;;;;5037053;28;20021;-61
2022/06/03 00:32:11;;;;;;;8.45;1.40;;;16.60;91.00;;;;;;5036479;28;20075;-62
2022/06/03 00:35:05;;;;;;;1.30;1.00;;;16.60;91.10;;;;;;5037138;28;20032;-62
2022/06/03 00:37:55;;;;;;;2.40;1.10;;;16.50;91.30;;;;;;5036360;28;20095;-63
2022/06/03 00:40:33;;;;;;;1.98;1.23;;;16.50;91.40;;;;;;5036674;28;20025;-63
2022/06/03 00:43:25;;;;;;;1.70;1.17;;;16.60;91.50;;;;;;5036406;28;20041;-62
2022/06/03 00:46:16;;;;;;;2.08;1.20;;;16.50;91.60;;;;;;5036011;28;20035;-63
2022/06/03 00:49:02;;;;;;;2.80;1.83;;;16.50;91.70;;;;;;5036337;28;20017;-62
2022/06/03 00:51:55;;;;;;;1.52;1.30;;;16.50;91.80;;;;;;5036385;28;20021;-62
2022/06/03 00:54:21;;;;;;;2.88;1.40;;;16.50;91.90;;;;;;5036403;28;20112;-62
2022/06/03 00:56:56;;;;;;;2.13;1.37;;;16.50;92.00;;;;;;5018488;28;20041;-62
2022/06/03 00:59:37;;;;;;;3.35;1.40;;;16.50;92.10;;;;;;5035949;28;20025;-62
2022/06/03 01:02:21;;;;;;;1.45;1.17;;;16.50;92.30;;;;;;5035900;28;20021;-62
2022/06/03 01:05:21;;;;;;;1.60;1.25;;;16.40;92.40;;;;;;5035939;28;20084;-62
2022/06/03 01:08:05;;;;;;;2.92;1.25;;;16.40;92.50;;;;;;5036237;28;20471;-62
2022/06/03 01:10:59;;;;;;;1.92;1.10;;;16.40;92.60;;;;;;5035541;28;20064;-62
2022/06/03 01:13:33;;;;;;;2.78;1.30;;;16.50;92.90;;;;;;5035829;28;20124;-62
2022/06/03 01:16:12;;;;;;;3.53;1.10;;;16.50;92.60;;;;;;5035020;28;20101;-62
2022/06/03 01:18:47;;;;;;;4.25;1.80;;;16.50;92.60;;;;;;5035432;28;20040;-62
2022/06/03 01:21:30;;;;;;;3.67;1.23;;;16.50;92.60;;;;;;5035232;28;20092;-60
2022/06/03 01:24:01;;;;;;;1.83;1.38;;;16.50;92.60;;;;;;5035368;28;20029;-62
2022/06/03 01:26:49;;;;;;;2.75;1.23;;;16.50;92.70;;;;;;5035307;28;20024;-63
2022/06/03 01:29:52;;;;;;;2.80;1.27;;;16.50;92.80;;;;;;5017312;28;20025;-63
2022/06/03 01:32:37;;;;;;;2.25;1.10;;;16.50;92.80;;;;;;5035497;28;20164;-62
2022/06/03 01:35:18;;;;;;;1.80;1.15;;;16.50;92.90;;;;;;5035420;28;20025;-63
2022/06/03 01:37:46;;;;;;;1.65;1.23;;;16.40;93.00;;;;;;5035205;28;20018;-62
2022/06/03 01:40:32;;;;;;;1.90;1.30;;;16.40;93.00;;;;;;5035174;28;20062;-63
2022/06/03 01:43:08;;;;;;;1.92;1.30;;;16.40;93.10;;;;;;5017432;28;20149;-62
2022/06/03 01:46:06;;;;;;;2.97;1.30;;;16.30;93.10;;;;;;5036325;28;20026;-62
2022/06/03 01:48:57;;;;;;;3.40;1.27;;;16.30;93.20;;;;;;5035152;28;20021;-62
2022/06/03 01:51:44;;;;;;;4.38;1.38;;;16.30;93.20;;;;;;5034740;28;20053;-62
2022/06/03 01:54:30;;;;;;;5.22;1.33;;;16.30;93.20;;;;;;5034789;28;20562;-62
2022/06/03 01:57:22;;;;;;;2.38;1.45;;;16.30;93.20;;;;;;5034928;28;20460;-62
2022/06/03 01:59:50;;;;;;;2.60;1.27;;;16.20;93.20;;;;;;4954532;29;20191;-63
2022/06/03 02:02:40;;;;;;;4.82;1.20;;;16.20;93.20;;;;;;4955495;29;20065;-60
2022/06/03 02:05:42;;;;;;;2.08;1.35;;;16.20;93.30;;;;;;4954781;29;20167;-61
2022/06/03 02:08:26;;;;;;;4.18;1.50;;;16.20;93.30;;;;;;4954231;28;20144;-64
2022/06/03 02:11:11;;;;;;;2.75;1.40;;;16.10;93.40;;;;;;4954455;29;20069;-63
2022/06/03 02:14:08;;;;;;;4.05;1.60;;;16.10;93.50;;;;;;4954517;29;20498;-63
2022/06/03 02:17:22;;;;;;;2.28;1.55;;;15.90;93.70;;;;;;4954567;29;20123;-62
2022/06/03 02:20:14;;;;;;;6.25;1.27;;;15.90;94.00;;;;;;4941571;29;20079;-59
2022/06/03 02:22:51;;;;;;;2.65;1.33;;;15.80;94.20;;;;;;4954090;29;20041;-62
2022/06/03 02:25:30;;;;;;;2.92;1.48;;;15.80;94.30;;;;;;4954104;29;20114;-61
2022/06/03 02:28:17;;;;;;;1.67;1.27;;;15.80;94.30;;;;;;4953854;28;20490;-61
2022/06/03 02:31:18;;;;;;;3.78;1.30;;;15.80;94.40;;;;;;4953957;29;20175;-61
2022/06/03 02:34:08;;;;;;;2.10;1.10;;;15.80;94.50;;;;;;4953862;29;20106;-62
2022/06/03 02:37:08;;;;;;;1.67;1.33;;;15.70;94.50;;;;;;4992110;28;20038;-62
2022/06/03 02:39:52;;;;;;;3.55;1.30;;;15.70;94.60;;;;;;5033857;28;20025;-62
2022/06/03 02:42:23;;;;;;;3.67;1.27;;;15.70;94.70;;;;;;5034109;28;20017;-62
2022/06/03 02:45:20;;;;;;;1.52;1.33;;;15.70;94.60;;;;;;5033529;28;20029;-62
2022/06/03 02:48:08;;;;;;;2.03;1.50;;;15.70;94.60;;;;;;5031575;28;20031;-63
2022/06/03 02:50:53;;;;;;;2.00;1.17;;;15.70;94.70;;;;;;5031026;28;20369;-62
2022/06/03 02:53:40;;;;;;;1.33;1.13;;;15.70;94.70;;;;;;5032113;28;20030;-62
2022/06/03 02:56:17;;;;;;;2.30;1.30;;;15.60;94.80;;;;;;5033856;28;20387;-62
2022/06/03 02:59:11;;;;;;;1.70;1.40;;;15.60;94.90;;;;;;5033708;28;20021;-60
2022/06/03 03:01:58;;;;;;;4.22;1.30;;;15.60;94.90;;;;;;5033984;28;20487;-62
2022/06/03 03:04:45;;;;;;;2.67;1.10;;;15.60;94.90;;;;;;5033600;28;20036;-62
2022/06/03 03:07:42;;;;;;;2.25;1.30;;;15.70;94.70;;;;;;5033332;28;20534;-62
2022/06/03 03:10:35;;;;;;;2.63;1.55;;;15.60;94.70;;;;;;5034010;28;20029;-63
2022/06/03 03:13:35;;;;;;;2.38;1.30;;;15.60;94.80;;;;;;5033805;28;20022;-63
2022/06/03 03:16:25;;;;;;;4.00;1.33;;;15.50;94.80;;;;;;5033209;28;20364;-63
2022/06/03 03:19:36;;;;;;;2.90;1.10;;;15.50;94.90;;;;;;5034559;28;20415;-65
2022/06/03 03:22:33;;;;;;;3.17;1.45;;;15.50;95.00;;;;;;5015501;28;20048;-65
2022/06/03 03:25:29;;;;;;;2.45;1.30;;;15.40;95.10;;;;;;5018397;28;20044;-64
2022/06/03 03:28:03;;;;;;;1.42;1.17;;;15.40;95.10;;;;;;5036572;28;20029;-65
2022/06/03 03:30:29;;;;;;;5.97;1.35;;;15.40;95.20;;;;;;5035690;28;20105;-65
2022/06/03 03:33:14;;;;;;;2.50;1.57;;;15.30;95.40;;;;;;5034820;28;20057;-65
2022/06/03 03:36:11;;;;;;;3.78;1.65;;;15.20;95.60;;;;;;5034836;28;20503;-65
2022/06/03 03:38:52;;;;;;;1.85;1.35;;;15.10;95.90;;;;;;5034882;28;20125;-64
2022/06/03 03:41:36;;;;;;;1.88;1.60;;;15.00;96.20;;;;;;5034312;28;20026;-65
2022/06/03 03:44:16;;;;;;;1.60;1.45;;;15.10;96.10;;;;;;5034331;28;20018;-64
2022/06/03 03:47:05;;;;;;;2.33;1.52;;;15.10;96.00;;;;;;5033993;28;20052;-64
2022/06/03 03:50:08;;;;;;;3.15;1.95;;;15.00;96.10;;;;;;5022316;28;20037;-64
2022/06/03 03:52:57;;;;;;;3.97;1.42;;;15.00;96.10;;;;;;5034943;28;20021;-65
2022/06/03 03:55:50;;;;;;;2.25;1.40;;;15.00;96.20;;;;;;5033102;28;20049;-65
2022/06/03 03:58:43;;;;;;;2.05;1.45;;;15.00;96.30;;;;;;5016643;28;20029;-65
2022/06/03 04:01:38;;;;;;;3.30;1.30;;;15.00;96.20;;;;;;5034311;28;20053;-65
2022/06/03 04:04:54;;;;;;;1.67;1.40;;;14.90;96.30;;;;;;5033603;28;20464;-65
2022/06/03 04:07:31;;;;;;;2.60;1.40;;;14.90;96.50;;;;;;5000049;28;20051;-65
2022/06/03 04:10:09;;;;;;;2.53;1.35;;;14.90;96.30;;;;;;5034243;28;20029;-65
2022/06/03 04:12:54;;;;;;;3.40;1.40;;;14.90;96.30;;;;;;5034755;28;20053;-65
2022/06/03 04:15:51;;;;;;;2.28;1.55;;;15.00;96.30;;;;;;5035140;28;20083;-65
2022/06/03 04:18:55;;;;;;;3.40;1.50;;;14.90;96.20;;;;;;5034097;28;20035;-63
2022/06/03 04:21:58;;;;;;;1.67;1.48;;;14.80;96.40;;;;;;5035114;28;20029;-64
2022/06/03 04:24:54;;;;;;;4.55;1.60;;;14.80;96.70;;;;;;5034811;28;20029;-63
2022/06/03 04:27:41;;;;;;;1.80;1.40;;;14.80;96.70;;;;;;5034682;28;20040;-64
2022/06/03 04:30:44;;;;;;;2.00;1.20;;;14.70;96.80;;;;;;5035216;28;20029;-64
2022/06/03 04:33:34;;;;;;;2.75;1.63;;;14.70;96.90;;;;;;5035887;28;20135;-64
2022/06/03 04:36:53;;;;;;;2.03;1.38;;;14.70;97.00;;;;;;5036011;28;20035;-64
2022/06/03 04:39:53;;;;;;;4.05;1.50;;;14.70;97.00;;;;;;5034495;28;20037;-64
2022/06/03 04:42:50;;;;;;;2.13;1.27;;;14.70;97.00;;;;;;5032260;28;20033;-65
2022/06/03 04:45:44;;;;;;;2.10;1.30;;;14.60;97.30;;;;;;5014969;28;20398;-64
2022/06/03 04:48:31;;;;;;;2.92;1.35;;;14.70;97.40;;;;;;5014493;28;20037;-65
2022/06/03 04:51:28;;;;;;;1.73;1.30;;;14.70;97.00;;;;;;5032446;28;20100;-65
2022/06/03 04:54:05;;;;;;;1.83;1.10;;;14.80;97.10;;;;;;5036332;28;20053;-65
2022/06/03 04:56:52;;;;;;;1.90;1.30;;;14.80;96.90;;;;;;5036605;28;20069;-65
2022/06/03 04:59:39;;;;;;;4.10;1.27;;;14.90;96.80;;;;;;5036096;28;20032;-68
2022/06/03 05:02:35;;;;;;;4.22;2.10;;;15.00;96.70;;;;;;5018331;28;20045;-66
2022/06/03 05:05:21;;;;;;;1.88;1.42;;;15.00;96.80;;;;;;5035776;28;20021;-67
2022/06/03 05:08:26;;;;;;;2.60;1.55;;;15.10;96.50;;;;;;5035693;28;20033;-66
2022/06/03 05:11:34;;;;;;;2.72;1.40;;;15.20;96.30;;;;;;5036160;28;20014;-65
2022/06/03 05:14:25;;;;;;;2.00;1.30;;;15.30;96.00;;;;;;5036199;28;20018;-65
2022/06/03 05:17:21;;;;;;;2.08;1.10;;;15.40;95.90;;;;;;5036105;28;20040;-65
2022/06/03 05:19:55;;;;;;;2.75;1.17;;;15.50;95.60;;;;;;5036049;28;20487;-64
2022/06/03 05:22:43;;;;;;;2.53;1.20;;;15.60;95.40;;;;;;5018022;28;20108;-65
2022/06/03 05:25:11;;;;;;;;;;;15.60;95.50;;;;;;5036389;28;20044;-65
2022/06/03 05:28:13;;;;;;;1.95;1.30;;;15.70;95.40;;;;;;5035296;28;19926;-65
2022/06/03 05:31:12;;;;;;;2.88;1.13;;;15.80;95.30;;;;;;5035459;28;20036;-65
2022/06/03 05:33:56;;;;;;;3.45;1.27;;;15.90;95.20;;;;;;5035433;28;20491;-64
2022/06/03 05:36:43;;;;;;;4.07;1.80;;;16.00;95.30;;;;;;5035453;28;20440;-64
2022/06/03 05:39:27;;;;;;;1.20;1.10;;;16.00;95.30;;;;;;5035914;28;20029;-64
2022/06/03 05:45:16;;;;;;;4.60;1.42;;;16.30;95.20;;;;;;5036202;28;20028;-63
2022/06/03 05:47:57;;;;;;;2.10;1.40;;;16.30;95.20;;;;;;5035278;28;20026;-65
2022/06/03 05:50:42;;;;;;;3.05;1.40;;;16.40;95.30;;;;;;5035606;28;20047;-65
2022/06/03 05:53:11;;;;;;;2.88;1.40;;;16.40;95.30;;;;;;5036041;28;20025;-65
2022/06/03 05:56:04;;;;;;;3.58;1.30;;;16.50;95.30;;;;;;5035305;28;20035;-64
2022/06/03 05:58:55;;;;;;;2.65;1.52;;;16.60;95.40;;;;;;5035376;28;20103;-64
2022/06/03 06:01:36;;;;;;;2.55;1.75;;;16.70;95.70;;;;;;5035478;28;20380;-64
2022/06/03 06:04:26;;;;;;;1.65;1.55;;;16.80;95.30;;;;;;5034845;28;20048;-64
2022/06/03 06:07:09;;;;;;;4.85;2.00;;;16.90;95.20;;;;;;5035824;28;20022;-65
2022/06/03 06:09:43;;;;;;;3.75;2.03;;;17.00;95.10;;;;;;5034878;28;20030;-65
2022/06/03 06:12:29;;;;;;;5.32;2.42;;;17.10;94.90;;;;;;5016979;28;20110;-64
2022/06/03 06:15:49;;;;;;;2.83;1.73;;;17.10;94.90;;;;;;5034696;28;20387;-65
2022/06/03 06:18:41;;;;;;;2.63;1.50;;;17.30;94.90;;;;;;5016742;28;20029;-67
2022/06/03 06:21:28;;;;;;;1.65;1.38;;;17.40;94.90;;;;;;5034468;28;20075;-66
2022/06/03 06:24:12;;;;;;;;;;;17.50;95.00;;;;;;5035466;28;20017;-65
2022/06/03 06:27:15;;;;;;;2.10;1.50;;;17.60;94.60;;;;;;5034643;28;19905;-64
2022/06/03 06:29:59;;;;;;;3.55;1.70;;;17.70;94.50;;;;;;5034215;28;20040;-65
2022/06/03 06:32:43;;;;;;;4.63;1.85;;;17.80;94.40;;;;;;5034292;28;20028;-65
2022/06/03 06:35:48;;;;;;;5.03;1.75;;;17.90;94.60;;;;;;5034498;28;20017;-65
2022/06/03 06:38:24;;;;;;;4.07;1.60;;;18.00;94.50;;;;;;5034113;28;20368;-65
2022/06/03 06:41:09;;;;;;;3.40;1.70;;;18.20;94.30;;;;;;5033892;28;20541;-65
2022/06/03 06:44:07;;;;;;;3.13;1.50;;;18.40;94.30;;;;;;5034584;28;20474;-64
2022/06/03 06:47:09;;;;;;;2.20;1.50;;;18.40;94.10;;;;;;5034115;28;20053;-66
2022/06/03 06:50:06;;;;;;;4.45;1.83;;;18.50;93.80;;;;;;5017857;28;20037;-65
2022/06/03 06:52:52;;;;;;;2.30;1.52;;;18.60;93.80;;;;;;5033943;28;20128;-64
2022/06/03 06:55:47;;;;;;;3.78;1.30;;;18.70;93.70;;;;;;5033945;28;20384;-64
2022/06/03 06:58:50;;;;;;;1.83;1.50;;;18.80;93.40;;;;;;5034086;28;20022;-64
2022/06/03 07:01:26;;;;;;;1.75;1.40;;;18.90;93.30;;;;;;5034569;28;20028;-65
2022/06/03 07:04:06;;;;;;;1.85;1.42;;;18.90;93.00;;;;;;5034869;28;20097;-65
2022/06/03 07:06:41;;;;;;;3.22;1.45;;;19.10;92.90;;;;;;5034187;28;20026;-62
2022/06/03 07:09:26;;;;;;;4.28;1.70;;;19.20;92.80;;;;;;5033852;28;20021;-62
2022/06/03 07:12:07;;;;;;;2.25;1.50;;;19.20;92.50;;;;;;5034092;28;20030;-62
2022/06/03 07:14:39;;;;;;;3.13;1.60;;;19.30;92.40;;;;;;5032906;28;20029;-62
2022/06/03 07:20:28;;;;;;;;;;;19.60;91.90;;;;;;5035234;28;20060;-63
2022/06/03 07:22:59;;;;;;;5.65;2.05;;;19.90;92.00;;;;;;5016545;28;19963;-63
2022/06/03 07:25:42;;;;;;;2.40;1.70;;;20.20;91.70;;;;;;5034569;28;20021;-63
2022/06/03 07:28:40;;;;;;;1.98;1.48;;;20.40;90.90;;;;;;5033816;28;20026;-63
2022/06/03 07:31:37;;;;;;;3.22;1.98;;;20.60;90.70;;;;;;5032268;28;20095;-63
2022/06/03 07:34:11;;;;;;;2.97;1.45;;;20.60;90.70;;;;;;5032010;28;20404;-63
2022/06/03 07:36:44;;;;;;;3.47;1.60;;;20.70;90.70;;;;;;5033099;28;20065;-63
2022/06/03 07:39:21;;;;;;;3.78;2.03;;;20.80;90.90;;;;;;5033520;28;20036;-63
2022/06/03 07:42:00;;;;;;;3.63;1.40;;;20.80;90.80;;;;;;5033070;28;20037;-64
2022/06/03 07:44:47;;;;;;;2.63;1.90;;;20.90;90.80;;;;;;5033341;28;20061;-64
2022/06/03 07:47:15;;;;;;;1.77;1.50;;;21.00;90.50;;;;;;4992633;28;20111;-63
2022/06/03 07:49:45;;;;;;;5.43;2.05;;;21.10;90.30;;;;;;5033033;28;20044;-63
2022/06/03 07:52:21;;;;;;;2.78;1.50;;;21.20;90.50;;;;;;5033026;28;20148;-64
2022/06/03 07:54:55;;;;;;;3.40;1.60;;;21.40;90.30;;;;;;5033190;28;20025;-64
2022/06/03 07:57:24;;;;;;;4.25;1.77;;;21.70;89.80;;;;;;5033071;28;20025;-64
2022/06/03 07:59:54;;;;;;;2.25;1.70;;;21.80;89.70;;;;;;5033064;28;20065;-64
2022/06/03 08:02:21;;;;;;;3.53;1.70;;;21.80;89.10;;;;;;5031771;28;20025;-65
2022/06/03 08:05:00;;;;;;;2.83;1.75;;;22.00;88.40;;;;;;5033516;28;20036;-66
2022/06/03 08:13:11;;;;;;;2.60;1.67;;;25.40;81.30;;;;;;5032986;28;20036;-65
2022/06/03 08:15:40;;;;;;;4.82;1.80;;;27.10;77.20;;;;;;5033055;28;20022;-64
2022/06/03 08:18:08;;;;;;;5.60;1.98;;;28.80;73.00;;;;;;5032394;28;20480;-64
2022/06/03 08:20:40;;;;;;;2.78;1.58;;;30.20;69.40;;;;;;5032390;28;20033;-66
2022/06/03 08:23:07;;;;;;;3.60;1.40;;;30.80;65.90;;;;;;5015305;28;20027;-65
2022/06/03 08:25:41;;;;;;;4.18;1.30;;;31.20;65.50;;;;;;5033036;28;20079;-65
2022/06/03 08:28:12;;;;;;;3.88;1.60;;;32.60;62.50;;;;;;5036934;28;20027;-65
2022/06/03 08:30:40;;;;;;;2.55;1.70;;;33.30;60.40;;;;;;5036480;28;20029;-65
2022/06/03 08:33:10;;;;;;;1.65;1.30;;;33.50;60.50;;;;;;5036704;28;20044;-65
2022/06/03 08:35:41;;;;;;;7.30;1.73;;;35.10;58.80;;;;;;5036707;28;20079;-65
2022/06/03 08:38:19;;;;;;;5.57;1.80;;;34.90;56.80;;;;;;5036534;28;20052;-65
2022/06/03 08:41:02;;;;;;;4.68;1.48;;;35.00;56.40;;;;;;5036552;28;20033;-65
2022/06/03 08:43:49;;;;;;;8.85;2.13;;;34.50;56.40;;;;;;5019123;28;20033;-65
2022/06/03 08:46:24;;;;;;;5.07;1.65;;;34.50;56.60;;;;;;5036176;28;20017;-65
2022/06/03 08:48:52;;;;;;;3.53;1.60;;;34.30;56.90;;;;;;5036252;28;20021;-65
2022/06/03 08:51:23;;;;;;;5.05;2.92;;;34.50;56.60;;;;;;5035096;28;20041;-66
2022/06/03 08:54:04;;;;;;;4.13;1.60;;;34.50;55.80;;;;;;5036558;28;20034;-65
2022/06/03 08:56:35;;;;;;;2.45;1.92;;;35.20;56.00;;;;;;5036344;28;20021;-64
2022/06/03 08:59:05;;;;;;;5.82;2.15;;;36.20;54.70;;;;;;5036692;28;20033;-64
2022/06/03 09:01:36;;;;;;;4.35;1.75;;;36.70;54.80;;;;;;5036754;28;20040;-62
2022/06/03 09:04:21;;;;;;;4.88;1.70;;;36.90;53.10;;;;;;5036137;28;20028;-63
2022/06/03 09:07:18;;;;;;;3.65;1.80;;;37.70;53.10;;;;;;5036506;28;20087;-64
2022/06/03 09:10:09;;;;;;;3.40;1.75;;;38.30;52.30;;;;;;5036574;28;20033;-64
2022/06/03 09:12:59;;;;;;;5.32;2.15;;;38.90;51.40;;;;;;5019141;28;20017;-65
2022/06/03 09:15:28;;;;;;;2.90;1.55;;;37.50;52.00;;;;;;5037263;28;20026;-66
2022/06/03 09:20:24;;;;;;;3.17;1.80;;;34.70;54.90;;;;;;5092944;28;19924;-67
2022/06/03 09:22:55;;;;;;;4.15;1.70;;;33.90;55.40;;;;;;5095911;28;20149;-65
2022/06/03 09:25:21;;;;;;;3.50;1.48;;;34.50;55.60;;;;;;5095677;28;20527;-65
2022/06/03 09:27:48;;;;;;;3.63;1.48;;;35.60;55.60;;;;;;5095898;28;20024;-65
2022/06/03 09:30:26;;;;;;;2.78;1.75;;;37.10;53.90;;;;;;5115263;28;20028;-65
2022/06/03 09:32:54;;;;;;;2.50;1.73;;;37.60;52.90;;;;;;5097280;28;20023;-64
2022/06/03 09:35:22;;;;;;;3.70;1.98;;;37.70;52.60;;;;;;5115916;28;20032;-65
2022/06/03 09:37:52;;;;;;;5.75;2.00;;;37.80;52.30;;;;;;5096655;28;20465;-65
2022/06/03 09:40:23;;;;;;;4.65;1.73;;;38.30;52.30;;;;;;5115513;28;20096;-65
2022/06/03 09:42:54;;;;;;;3.47;1.80;;;38.40;51.10;;;;;;5115615;28;20466;-66
2022/06/03 09:45:20;;;;;;;4.72;2.00;;;37.80;51.80;;;;;;5115661;28;20019;-66
2022/06/03 09:47:47;;;;;;;2.17;1.80;;;38.20;51.90;;;;;;5115454;28;20509;-66
2022/06/03 09:50:15;;;;;;;2.33;1.90;;;39.00;51.00;;;;;;5115480;28;20542;-66
2022/06/03 09:52:41;;;;;;;3.15;1.90;;;38.00;51.40;;;;;;5115186;28;20114;-65
2022/06/03 09:55:28;;;;;;;4.15;1.52;;;36.50;52.70;;;;;;5097245;28;20027;-64
2022/06/03 09:57:57;;;;;;;2.47;1.58;;;34.40;55.10;;;;;;5115741;28;20023;-66
2022/06/03 10:00:26;;;;;;;5.68;1.90;;;33.40;56.40;;;;;;5115281;28;20023;-66
2022/06/03 10:02:56;;;;;;;4.75;1.73;;;33.40;56.70;;;;;;5096752;28;20126;-66
2022/06/03 10:05:23;;;;;;;2.15;1.65;;;33.30;56.70;;;;;;5115729;28;20012;-66
2022/06/03 10:08:00;;;;;;;3.67;1.70;;;32.80;57.90;;;;;;5115231;28;20373;-66
2022/06/03 10:13:10;;;;;;;3.88;2.15;;;31.30;59.60;;;;;;5115799;28;20073;-67
2022/06/03 10:15:53;;;;;;;1.95;1.70;;;31.20;59.90;;;;;;5097045;28;20485;-65
2022/06/03 10:18:39;;;;;;;2.63;2.10;;;31.30;59.90;;;;;;5115192;28;20062;-66
2022/06/03 10:21:05;;;;;;;4.22;3.72;;;31.00;60.40;;;;;;5114824;28;20035;-65
2022/06/03 10:23:36;;;;;;;2.78;1.80;;;30.60;61.20;;;;;;5115504;28;20361;-66
2022/06/03 10:26:04;;;;;;;4.10;1.85;;;30.50;61.40;;;;;;5115521;28;20020;-65
2022/06/03 10:28:35;;;;;;;2.85;1.80;;;30.20;61.70;;;;;;5096826;28;20477;-66
2022/06/03 10:31:07;;;;;;;2.58;1.80;;;30.10;62.20;;;;;;5114957;28;20055;-66
2022/06/03 10:33:33;;;;;;;3.10;2.00;;;30.10;62.50;;;;;;5114742;28;20028;-67
2022/06/03 10:36:01;;;;;;;3.05;1.80;;;31.10;61.70;;;;;;5114750;28;20016;-67
2022/06/03 10:38:30;;;;;;;10.20;2.13;;;32.20;60.00;;;;;;5114843;28;20027;-67
2022/06/03 10:40:56;;;;;;;2.53;1.70;;;33.30;58.40;;;;;;5114530;28;20595;-67
2022/06/03 10:43:30;;;;;;;4.95;1.90;;;33.50;58.00;;;;;;5114865;28;20031;-67
2022/06/03 10:46:08;;;;;;;4.65;2.00;;;33.80;57.70;;;;;;5096284;28;20358;-65
2022/06/03 10:48:35;;;;;;;3.60;2.00;;;34.70;56.80;;;;;;5114706;28;20107;-67
2022/06/03 10:51:18;;;;;;;4.68;2.00;;;35.60;55.60;;;;;;5113776;28;20020;-67
2022/06/03 11:02:28;;;;;;;3.63;1.90;;;31.90;59.50;;;;;;5114608;28;20389;-66
2022/06/03 11:05:11;;;;;;;5.68;2.45;;;30.90;60.90;;;;;;5095810;28;20478;-66
2022/06/03 11:07:37;;;;;;;3.83;2.17;;;29.70;63.00;;;;;;5114412;28;20079;-66
2022/06/03 11:10:13;;;;;;;4.70;2.05;;;29.10;64.10;;;;;;5114058;28;20051;-66
2022/06/03 11:12:39;;;;;;;4.82;2.03;;;28.60;65.40;;;;;;5114358;28;20022;-66
2022/06/03 11:15:35;;;;;;;4.72;2.45;;;28.30;65.90;;;;;;5114129;28;20024;-67
2022/06/03 11:18:14;;;;;;;4.68;2.10;;;28.30;66.20;;;;;;5095948;28;20016;-65
2022/06/03 11:20:40;;;;;;;3.65;2.20;;;28.20;66.00;;;;;;5096146;28;20027;-66
2022/06/03 11:23:07;;;;;;;3.58;2.50;;;27.90;66.40;;;;;;5095581;28;20024;-66
2022/06/03 11:25:37;;;;;;;5.43;2.30;;;27.90;66.80;;;;;;5114039;28;20030;-67
2022/06/03 11:28:19;;;;;;;4.55;1.95;;;27.60;67.60;;;;;;5113845;28;20016;-65
2022/06/03 11:31:07;;;;;;;5.13;2.28;;;27.60;68.10;;;;;;5114240;28;20031;-66
2022/06/03 11:33:43;;;;;;;2.90;2.28;;;27.70;68.10;;;;;;5095675;28;20486;-67
2022/06/03 11:36:44;;;;;;;2.70;1.98;;;27.80;67.90;;;;;;5114259;28;20041;-67
2022/06/03 11:39:28;;;;;;;9.00;4.00;;;28.00;68.00;;;;;;5011363;28;20121;-65
2022/06/03 11:41:58;;;;;;;3.60;2.40;;;28.20;68.20;;;;;;5011611;28;20041;-66
2022/06/03 11:44:38;;;;;;;2.92;2.42;;;28.00;68.00;;;;;;5011322;28;20106;-66
2022/06/03 11:47:21;;;;;;;3.10;2.17;;;28.00;68.40;;;;;;5011586;28;20551;-67
2022/06/03 11:49:46;;;;;;;6.47;2.40;;;28.00;68.30;;;;;;5011485;28;20192;-67
2022/06/03 11:52:13;;;;;;;3.42;2.13;;;28.20;68.40;;;;;;5012271;28;20037;-67
2022/06/03 11:54:39;;;;;;;4.47;2.38;;;28.30;68.30;;;;;;5011851;28;20103;-67
2022/06/03 11:57:07;;;;;;;2.40;2.20;;;28.40;68.50;;;;;;5011523;28;20104;-67
2022/06/03 11:59:40;;;;;;;4.43;2.05;;;28.40;68.30;;;;;;4994857;28;20531;-67
2022/06/03 12:02:13;;;;;;;5.30;2.30;;;28.30;68.10;;;;;;5011145;28;20042;-66
2022/06/03 12:05:10;;;;;;;4.95;2.58;;;28.40;68.20;;;;;;4994686;28;20045;-66
2022/06/03 12:08:09;;;;;;;4.50;2.45;;;28.40;68.60;;;;;;4994498;28;20368;-66
2022/06/03 12:14:33;;;;;;;2.78;2.30;;;28.20;69.00;;;;;;4997283;28;20055;-66
2022/06/03 12:17:22;;;;;;;5.15;2.40;;;28.10;69.10;;;;;;5054025;28;20035;-65
2022/06/03 12:19:50;;;;;;;5.65;2.10;;;28.20;69.50;;;;;;5053125;28;20048;-65
2022/06/03 12:22:30;;;;;;;2.40;2.20;;;28.20;69.70;;;;;;5070231;28;20096;-66
2022/06/03 12:25:00;;;;;;;5.43;2.50;;;28.30;69.60;;;;;;5070657;28;20044;-66
2022/06/03 12:27:30;;;;;;;4.43;2.70;;;28.20;69.50;;;;;;5053773;28;20189;-66
2022/06/03 12:30:04;;;;;;;5.60;2.65;;;27.90;69.70;;;;;;5070183;28;20040;-65
2022/06/03 12:32:32;;;;;;;2.95;2.55;;;27.60;70.60;;;;;;5070672;28;20117;-65
2022/06/03 12:35:35;;;;;;;5.20;2.55;;;27.60;70.80;;;;;;5070485;28;20024;-68
2022/06/03 12:38:19;;;;;;;3.55;3.25;;;27.50;71.10;;;;;;5070244;28;20110;-66
2022/06/03 12:40:46;;;;;;;4.78;2.65;;;27.60;71.50;;;;;;5070166;28;20183;-66
2022/06/03 12:43:30;;;;;;;3.53;2.78;;;27.60;71.30;;;;;;5070611;28;20046;-66
2022/06/03 12:46:07;;;;;;;5.60;2.85;;;27.60;71.30;;;;;;5114054;28;20377;-67
2022/06/03 12:48:51;;;;;;;10.73;2.83;;;27.60;71.80;;;;;;5095070;28;20031;-65
2022/06/03 12:51:32;;;;;;;5.20;2.75;;;27.70;72.30;;;;;;5094312;28;20143;-67
2022/06/03 12:54:16;;;;;;;5.95;2.75;;;27.60;72.50;;;;;;5113188;28;20023;-66
2022/06/03 12:56:47;;;;;;;9.30;2.90;;;27.40;72.80;;;;;;5113126;28;20024;-66
2022/06/03 12:59:36;;;;;;;7.63;2.65;;;27.30;73.00;;;;;;5094638;28;20032;-66
2022/06/03 13:02:15;;;;;;;7.13;2.90;;;27.30;72.70;;;;;;5113035;28;20169;-66
2022/06/03 13:04:46;;;;;;;10.13;3.08;;;27.40;72.30;;;;;;5112853;28;20452;-66
2022/06/03 13:07:27;;;;;;;8.18;2.70;;;27.40;72.50;;;;;;5112786;28;20015;-66
2022/06/03 13:10:07;;;;;;;9.18;2.72;;;27.40;72.50;;;;;;5112755;28;20079;-66
2022/06/03 13:12:33;;;;;;;3.80;2.38;;;27.40;72.30;;;;;;5112978;28;20481;-65
2022/06/03 13:15:16;;;;;;;4.65;2.80;;;27.30;72.30;;;;;;5116252;28;20027;-66
2022/06/03 13:18:18;;;;;;;5.85;3.00;;;27.20;72.30;;;;;;5116091;28;20090;-66
2022/06/03 13:21:02;;;;;;;5.80;2.90;;;27.20;72.10;;;;;;5115631;28;20507;-66
2022/06/03 13:23:38;;;;;;;4.07;2.75;;;27.40;72.10;;;;;;5115869;28;20496;-67
2022/06/03 13:26:22;;;;;;;;;;;27.50;72.00;;;;;;5116608;28;20023;-66
2022/06/03 13:28:49;;;;;;;3.15;2.63;;;27.70;71.60;;;;;;5115807;28;19907;-67
2022/06/03 13:31:38;;;;;;;8.10;2.78;;;27.70;71.80;;;;;;5115995;28;20038;-67
2022/06/03 13:34:15;;;;;;;3.67;2.50;;;27.80;71.70;;;;;;5098030;28;20030;-67
2022/06/03 13:36:55;;;;;;;7.55;2.80;;;27.80;71.40;;;;;;5097312;28;20027;-67
2022/06/03 13:39:23;;;;;;;4.72;2.65;;;27.90;71.60;;;;;;5115636;28;20026;-65
2022/06/03 13:44:48;;;;;;;7.20;2.75;;;27.90;71.60;;;;;;5116390;28;20111;-67
2022/06/03 13:47:22;;;;;;;;;;;27.90;72.00;;;;;;5116571;28;20068;-66
2022/06/03 13:49:56;;;;;;;5.57;2.75;;;27.80;72.20;;;;;;5116099;28;19945;-66
2022/06/03 13:52:25;;;;;;;6.28;2.97;;;27.80;72.70;;;;;;5115837;28;20088;-66
2022/06/03 13:55:09;;;;;;;4.85;2.67;;;27.70;72.80;;;;;;5097359;28;20342;-67
2022/06/03 13:57:38;;;;;;;5.13;3.13;;;27.60;72.70;;;;;;5097610;28;20375;-66
2022/06/03 14:00:36;;;;;;;3.42;2.63;;;27.30;72.50;;;;;;5097130;28;20020;-67
2022/06/03 14:03:04;;;;;;;7.72;3.33;;;27.10;72.90;;;;;;5097374;28;20023;-66
2022/06/03 14:05:53;;;;;;;4.00;2.80;;;27.10;73.30;;;;;;5115839;28;20124;-66
2022/06/03 14:08:24;;;;;;;6.53;2.78;;;27.10;73.10;;;;;;5115604;28;20422;-66
2022/06/03 14:11:05;;;;;;;6.60;3.33;;;27.00;72.90;;;;;;5115742;28;20393;-66
2022/06/03 14:13:55;;;;;;;3.20;2.85;;;27.00;73.00;;;;;;5097343;28;20034;-64
2022/06/03 14:16:46;;;;;;;3.50;2.38;;;27.00;73.50;;;;;;5115968;28;20462;-64
2022/06/03 14:19:11;;;;;;;6.32;2.72;;;26.90;74.20;;;;;;5097420;28;20054;-65
2022/06/03 14:21:37;;;;;;;5.07;2.70;;;26.80;75.00;;;;;;5116094;28;20532;-65
2022/06/03 14:24:25;;;;;;;7.38;2.83;;;26.70;75.00;;;;;;5098457;28;20024;-65
2022/06/03 14:26:53;;;;;;;5.57;2.72;;;26.80;75.20;;;;;;5116275;28;20034;-65
2022/06/03 14:29:34;;;;;;;3.80;2.50;;;26.90;75.20;;;;;;5116338;28;20020;-65
2022/06/03 14:32:13;;;;;;;3.30;2.35;;;27.00;74.70;;;;;;5116218;28;20020;-65
2022/06/03 14:35:00;;;;;;;4.32;2.88;;;27.00;74.60;;;;;;5115176;28;20076;-64
2022/06/03 14:37:49;;;;;;;5.60;2.95;;;26.80;75.70;;;;;;5114440;28;20072;-65